Terminal Aerodrome Forecast
Issued by NWS Wichita, KS

Home | Current Version | Previous Version | Graphics & Text | Print | Product List | Glossary On
Versions: 1 2 3 4 5 6 7 8 9 10 11 12 13 14 15 16 17 18
000
FTUS43 KICT 210100 AAA
TAFICT
TAF AMD
KICT 210116Z 2101/2124 19007KT P6SM SCT070
     FM210300 01015G25KT P6SM VCTS SCT050CB
      TEMPO 2103/2105 -TSRA BKN050CB
     FM210500 02008KT P6SM SKC
     FM211400 02013KT P6SM SCT250=

USA.gov is the U.S. government's official web portal to all federal, state and local government web resources and services.